createdAt,value
2017-06-09T00:01:15.995Z,39.29
2017-06-09T00:02:12.575Z,39.59
2017-06-09T00:03:12.528Z,39.59
2017-06-09T00:04:12.455Z,39.29
2017-06-09T00:05:12.406Z,39.49
2017-06-09T00:07:12.273Z,39.59
2017-06-09T00:08:12.207Z,39.39
2017-06-09T00:09:12.143Z,39.39
2017-06-09T00:10:11.782Z,39.49
2017-06-09T00:11:12.029Z,39.49
2017-06-09T00:12:11.942Z,39.59
2017-06-09T00:13:11.879Z,39.49
2017-06-09T00:14:11.826Z,39.39
2017-06-09T00:15:11.764Z,39.37
2017-06-09T00:16:11.703Z,39.49
2017-06-09T00:17:11.632Z,39.39
2017-06-09T00:18:11.577Z,39.49
2017-06-09T00:19:11.522Z,39.39
2017-06-09T00:20:11.462Z,39.59
2017-06-09T00:21:11.389Z,39.49
2017-06-09T00:22:11.331Z,39.59
2017-06-09T00:23:11.254Z,39.39
2017-06-09T00:24:11.208Z,39.49
2017-06-09T00:25:11.165Z,39.39
2017-06-09T00:26:11.124Z,39.87
2017-06-09T00:27:10.706Z,39.49
2017-06-09T00:28:10.655Z,39.59
2017-06-09T00:29:10.897Z,39.78
2017-06-09T00:30:10.843Z,39.29
2017-06-09T00:31:10.767Z,39.57
2017-06-09T00:32:10.792Z,39.49
2017-06-09T00:33:10.655Z,39.49
2017-06-09T00:34:10.577Z,39.66
2017-06-09T00:35:10.207Z,39.47
2017-06-09T00:36:10.164Z,39.57
2017-06-09T00:37:10.391Z,39.59
2017-06-09T00:38:10.336Z,39.78
2017-06-09T00:39:10.265Z,39.49
2017-06-09T00:40:10.199Z,39.49
2017-06-09T00:41:09.851Z,39.47
2017-06-09T00:42:09.779Z,39.49
2017-06-09T00:43:10.223Z,39.69
2017-06-09T00:44:09.653Z,39.59
2017-06-09T00:45:09.896Z,39.57
2017-06-09T00:46:09.833Z,39.76
2017-06-09T00:47:09.768Z,39.57
2017-06-09T00:48:09.702Z,39.87
2017-06-09T00:49:09.641Z,39.86
2017-06-09T00:50:09.274Z,39.76
2017-06-09T00:51:09.516Z,39.69
2017-06-09T00:52:09.405Z,39.66
2017-06-09T00:53:09.407Z,39.66
2017-06-09T00:54:09.331Z,39.86
2017-06-09T00:55:09.257Z,39.86
2017-06-09T00:56:09.211Z,39.66
2017-06-09T00:57:09.147Z,39.66
2017-06-09T00:58:09.095Z,39.86
2017-06-09T00:59:09.032Z,40.15
2017-06-09T01:00:08.664Z,39.86
2017-06-09T01:01:17.969Z,39.66
2017-06-09T01:02:08.820Z,39.86
2017-06-09T01:03:08.780Z,40.24
2017-06-09T01:04:08.717Z,39.86
2017-06-09T01:05:08.345Z,40.26
2017-06-09T01:06:08.484Z,40.17
2017-06-09T01:07:08.522Z,39.87
2017-06-09T01:08:08.157Z,40.07
2017-06-09T01:09:08.392Z,39.76
2017-06-09T01:10:08.039Z,39.59
2017-06-09T01:11:08.256Z,39.76
2017-06-09T01:12:08.196Z,39.86
2017-06-09T01:13:08.154Z,39.76
2017-06-09T01:14:08.085Z,39.86
2017-06-09T01:15:08.023Z,39.86
2017-06-09T01:16:07.655Z,39.86
2017-06-09T01:17:07.899Z,39.95
2017-06-09T01:18:07.529Z,40.15
2017-06-09T01:19:07.768Z,40.26
2017-06-09T01:20:07.722Z,39.66
2017-06-09T01:21:07.660Z,39.87
2017-06-09T01:22:07.568Z,39.87
2017-06-09T01:23:07.883Z,40.15
2017-06-09T01:24:07.457Z,39.95
2017-06-09T01:25:07.382Z,39.95
2017-06-09T01:26:07.322Z,39.95
2017-06-09T01:27:07.284Z,39.95
2017-06-09T01:28:07.344Z,40.15
2017-06-09T01:29:07.142Z,40.34
2017-06-09T01:30:06.780Z,39.86
2017-06-09T01:31:07.021Z,39.86
2017-06-09T01:32:06.954Z,39.86
2017-06-09T01:33:06.907Z,40.15
2017-06-09T01:34:06.832Z,40.15
2017-06-09T01:35:06.792Z,39.86
2017-06-09T01:36:06.713Z,40.34
2017-06-09T01:37:06.635Z,40.15
2017-06-09T01:38:06.273Z,40.15
2017-06-09T01:39:06.533Z,39.87
2017-06-09T01:40:06.474Z,40.15
2017-06-09T01:41:06.413Z,40.24
2017-06-09T01:42:06.339Z,39.95
2017-06-09T01:43:06.309Z,39.95
2017-06-09T01:44:06.222Z,40.05
2017-06-09T01:45:06.140Z,40.15
2017-06-09T01:46:06.095Z,40.05
2017-06-09T01:47:05.730Z,40.15
2017-06-09T01:48:05.963Z,40.05
2017-06-09T01:49:05.900Z,40.05
2017-06-09T01:50:05.541Z,40.15
2017-06-09T01:51:05.770Z,40.05
2017-06-09T01:52:05.408Z,39.95
2017-06-09T01:53:05.644Z,40.05
2017-06-09T01:54:05.599Z,39.95
2017-06-09T01:55:05.526Z,40.05
2017-06-09T01:56:05.457Z,40.15
2017-06-09T01:57:05.406Z,40.05
2017-06-09T01:58:05.322Z,40.05
2017-06-09T01:59:05.272Z,39.95
2017-06-09T02:00:04.906Z,40.15
2017-06-09T02:01:05.150Z,40.05
2017-06-09T02:02:05.097Z,39.95
2017-06-09T02:03:05.009Z,40.15
2017-06-09T02:04:05.112Z,40.15
2017-06-09T02:05:04.894Z,40.15
2017-06-09T02:06:04.837Z,39.95
2017-06-09T02:07:04.784Z,40.07
2017-06-09T02:08:04.406Z,40.34
2017-06-09T02:09:04.344Z,39.95
2017-06-09T02:10:04.582Z,40.05
2017-06-09T02:11:04.519Z,40.05
2017-06-09T02:12:04.448Z,40.15
2017-06-09T02:13:04.384Z,40.05
2017-06-09T02:14:04.353Z,39.86
2017-06-09T02:15:04.271Z,40.15
2017-06-09T02:16:04.212Z,39.95
2017-06-09T02:17:04.149Z,39.95
2017-06-09T02:18:04.087Z,40.15
2017-06-09T02:19:04.035Z,39.95
2017-06-09T02:20:03.946Z,40.34
2017-06-09T02:21:03.903Z,40.44
2017-06-09T02:22:03.838Z,40.24
2017-06-09T02:23:03.768Z,40.15
2017-06-09T02:24:03.697Z,40.15
2017-06-09T02:25:03.658Z,39.86
2017-06-09T02:26:03.581Z,39.95
2017-06-09T02:27:03.570Z,40.05
2017-06-09T02:28:03.445Z,40.05
2017-06-09T02:29:03.399Z,40.15
2017-06-09T02:30:03.339Z,40.24
2017-06-09T02:31:03.261Z,40.24
2017-06-09T02:32:03.206Z,40.24
2017-06-09T02:33:03.151Z,40.05
2017-06-09T02:34:03.081Z,40.34
2017-06-09T02:35:03.024Z,40.15
2017-06-09T02:36:02.964Z,40.15
2017-06-09T02:37:02.893Z,40.15
2017-06-09T02:38:02.531Z,40.15
2017-06-09T02:39:02.774Z,40.24
2017-06-09T02:40:02.712Z,40.24
2017-06-09T02:41:02.638Z,40.24
2017-06-09T02:42:02.580Z,40.24
2017-06-09T02:43:02.537Z,40.05
2017-06-09T02:44:02.158Z,40.15
2017-06-09T02:45:02.407Z,40.53
2017-06-09T02:46:02.320Z,40.34
2017-06-09T02:47:02.297Z,40.53
2017-06-09T02:48:02.220Z,40.34
2017-06-09T02:49:02.131Z,40.15
2017-06-09T02:50:02.084Z,40.24
2017-06-09T02:51:02.014Z,40.24
2017-06-09T02:52:01.945Z,40.15
2017-06-09T02:53:01.881Z,40.15
2017-06-09T02:54:01.828Z,40.44
2017-06-09T02:55:01.758Z,40.24
2017-06-09T02:56:01.709Z,40.34
2017-06-09T02:57:01.648Z,40.34
2017-06-09T02:58:01.595Z,40.63
2017-06-09T02:59:01.614Z,40.24
2017-06-09T03:00:01.446Z,40.34
2017-06-09T03:01:01.407Z,40.05
2017-06-09T03:02:01.320Z,40.44
2017-06-09T03:03:01.281Z,40.26
2017-06-09T03:04:01.203Z,40.15
2017-06-09T03:05:01.141Z,40.24
2017-06-09T03:06:01.079Z,40.05
2017-06-09T03:07:01.008Z,40.24
2017-06-09T03:08:00.964Z,40.53
2017-06-09T03:09:00.892Z,40.15
2017-06-09T03:10:00.819Z,40.15
2017-06-09T03:11:00.759Z,40.15
2017-06-09T03:12:00.695Z,40.44
2017-06-09T03:13:00.657Z,40.44
2017-06-09T03:14:00.596Z,40.15
2017-06-09T03:15:00.531Z,40.24
2017-06-09T03:16:00.470Z,40.44
2017-06-09T03:17:00.381Z,40.15
2017-06-09T03:18:00.431Z,40.34
2017-06-09T03:19:00.283Z,40.34
2017-06-09T03:20:00.196Z,40.44
2017-06-09T03:21:00.157Z,40.24
2017-06-09T03:21:59.790Z,40.15
2017-06-09T03:23:00.017Z,40.15
2017-06-09T03:23:59.959Z,40.24
2017-06-09T03:24:59.905Z,40.24
2017-06-09T03:25:59.835Z,40.72
2017-06-09T03:26:59.782Z,40.34
2017-06-09T03:27:59.709Z,40.24
2017-06-09T03:28:59.656Z,40.24
2017-06-09T03:29:59.594Z,40.53
2017-06-09T03:30:59.532Z,40.24
2017-06-09T03:31:59.453Z,40.34
2017-06-09T03:32:59.397Z,40.44
2017-06-09T03:33:59.329Z,40.44
2017-06-09T03:34:59.271Z,40.63
2017-06-09T03:35:59.193Z,40.44
2017-06-09T03:36:59.130Z,40.34
2017-06-09T03:37:58.769Z,40.53
2017-06-09T03:38:59.006Z,40.24
2017-06-09T03:39:58.942Z,40.53
2017-06-09T03:40:58.913Z,40.24
2017-06-09T03:41:58.828Z,40.24
2017-06-09T03:42:58.770Z,40.24
2017-06-09T03:43:58.707Z,40.24
2017-06-09T03:44:58.656Z,40.44
2017-06-09T03:45:58.567Z,40.24
2017-06-09T03:46:58.531Z,40.15
2017-06-09T03:47:58.440Z,40.24
2017-06-09T03:48:58.389Z,40.53
2017-06-09T03:49:58.332Z,40.63
2017-06-09T03:50:57.966Z,40.05
2017-06-09T03:51:58.218Z,40.15
2017-06-09T03:52:58.130Z,40.34
2017-06-09T03:53:58.076Z,40.53
2017-06-09T03:54:58.018Z,40.44
2017-06-09T03:55:57.666Z,40.24
2017-06-09T03:56:57.886Z,40.34
2017-06-09T03:57:57.842Z,40.44
2017-06-09T03:58:57.764Z,40.34
2017-06-09T03:59:57.702Z,40.24
2017-06-09T04:00:57.644Z,40.15
2017-06-09T04:01:57.597Z,40.05
2017-06-09T04:02:57.529Z,40.44
2017-06-09T04:03:57.466Z,40.05
2017-06-09T04:04:57.378Z,40.44
2017-06-09T04:05:57.016Z,40.05
2017-06-09T04:06:57.268Z,40.24
2017-06-09T04:07:57.215Z,40.24
2017-06-09T04:08:57.144Z,40.44
2017-06-09T04:09:57.063Z,40.05
2017-06-09T04:10:57.028Z,39.86
2017-06-09T04:11:56.950Z,40.05
2017-06-09T04:12:56.877Z,39.95
2017-06-09T04:13:56.813Z,40.15
2017-06-09T04:14:56.780Z,39.86
2017-06-09T04:15:56.714Z,39.66
2017-06-09T04:16:56.632Z,39.95
2017-06-09T04:17:56.564Z,39.47
2017-06-09T04:18:56.501Z,39.37
2017-06-09T04:19:56.449Z,39.47
2017-06-09T04:20:56.389Z,39.57
2017-06-09T04:21:56.329Z,39.47
2017-06-09T04:22:56.277Z,39.37
2017-06-09T04:23:56.213Z,39.47
2017-06-09T04:24:56.143Z,39.47
2017-06-09T04:25:56.065Z,39.57
2017-06-09T04:26:56.018Z,39.28
2017-06-09T04:27:55.953Z,39.28
2017-06-09T04:28:55.875Z,39.47
2017-06-09T04:29:55.829Z,39.37
2017-06-09T04:30:55.760Z,39.28
2017-06-09T04:31:55.688Z,39.28
2017-06-09T04:32:55.626Z,39.18
2017-06-09T04:33:55.586Z,39.37
2017-06-09T04:34:55.515Z,39.28
2017-06-09T04:35:55.454Z,39.47
2017-06-09T04:36:55.390Z,39.28
2017-06-09T04:37:55.329Z,39.47
2017-06-09T04:38:55.275Z,39.47
2017-06-09T04:39:55.188Z,39.37
2017-06-09T04:40:55.194Z,39.47
2017-06-09T04:41:55.077Z,39.37
2017-06-09T04:42:55.001Z,39.37
2017-06-09T04:43:54.947Z,39.37
2017-06-09T04:44:54.889Z,39.57
2017-06-09T04:45:54.828Z,39.37
2017-06-09T04:46:54.760Z,39.57
2017-06-09T04:47:54.707Z,39.37
2017-06-09T04:48:54.642Z,39.57
2017-06-09T04:49:54.578Z,39.57
2017-06-09T04:50:54.610Z,39.37
2017-06-09T04:51:54.449Z,39.47
2017-06-09T04:52:54.401Z,39.37
2017-06-09T04:53:54.023Z,39.39
2017-06-09T04:54:54.265Z,39.47
2017-06-09T04:55:54.190Z,39.28
2017-06-09T04:56:54.134Z,39.49
2017-06-09T04:57:54.073Z,39.28
2017-06-09T04:58:54.025Z,39.57
2017-06-09T04:59:53.962Z,39.47
2017-06-09T05:00:53.886Z,39.49
2017-06-09T05:01:58.611Z,39.37
2017-06-09T05:02:53.774Z,39.37
2017-06-09T05:03:53.699Z,39.37
2017-06-09T05:04:53.635Z,39.28
2017-06-09T05:05:53.683Z,39.37
2017-06-09T05:06:53.500Z,39.47
2017-06-09T05:07:53.447Z,39.57
2017-06-09T05:08:53.074Z,39.57
2017-06-09T05:09:53.322Z,39.28
2017-06-09T05:10:53.263Z,39.47
2017-06-09T05:11:53.199Z,39.47
2017-06-09T05:12:53.137Z,39.47
2017-06-09T05:13:53.072Z,39.57
2017-06-09T05:14:52.999Z,39.37
2017-06-09T05:15:52.951Z,39.28
2017-06-09T05:16:52.886Z,39.37
2017-06-09T05:17:52.825Z,39.57
2017-06-09T05:18:52.751Z,39.37
2017-06-09T05:19:52.711Z,39.37
2017-06-09T05:20:52.424Z,39.37
2017-06-09T05:21:52.564Z,39.57
2017-06-09T05:22:52.516Z,39.28
2017-06-09T05:23:52.447Z,39.39
2017-06-09T05:24:52.382Z,39.47
2017-06-09T05:25:52.310Z,39.47
2017-06-09T05:26:51.968Z,39.28
2017-06-09T05:27:52.204Z,39.28
2017-06-09T05:28:52.141Z,39.47
2017-06-09T05:29:52.071Z,39.37
2017-06-09T05:30:52.159Z,39.57
2017-06-09T05:31:51.936Z,39.37
2017-06-09T05:32:51.871Z,39.49
2017-06-09T05:33:51.827Z,39.47
2017-06-09T05:34:51.749Z,39.47
2017-06-09T05:35:51.686Z,39.37
2017-06-09T05:36:51.621Z,39.28
2017-06-09T05:37:51.584Z,39.28
2017-06-09T05:38:51.507Z,39.57
2017-06-09T05:39:51.450Z,39.39
2017-06-09T05:40:51.397Z,39.37
2017-06-09T05:41:51.324Z,39.47
2017-06-09T05:42:51.261Z,39.37
2017-06-09T05:43:51.209Z,39.37
2017-06-09T05:44:51.147Z,39.47
2017-06-09T05:45:51.070Z,39.37
2017-06-09T05:46:51.011Z,39.37
2017-06-09T05:47:50.943Z,39.57
2017-06-09T05:48:50.896Z,39.47
2017-06-09T05:49:50.826Z,39.76
2017-06-09T05:50:50.756Z,39.57
2017-06-09T05:51:50.683Z,39.66
2017-06-09T05:52:50.630Z,39.57
2017-06-09T05:53:50.562Z,39.57
2017-06-09T05:54:50.495Z,39.57
2017-06-09T05:55:50.159Z,39.66
2017-06-09T05:56:50.395Z,39.57
2017-06-09T05:57:50.324Z,39.57
2017-06-09T05:58:50.255Z,39.18
2017-06-09T05:59:50.183Z,39.57
2017-06-09T06:00:50.121Z,39.57
2017-06-09T06:01:50.081Z,39.57
2017-06-09T06:02:50.021Z,39.57
2017-06-09T06:03:49.956Z,39.57
2017-06-09T06:04:49.894Z,39.59
2017-06-09T06:05:49.817Z,39.37
2017-06-09T06:06:49.759Z,39.57
2017-06-09T06:07:49.692Z,39.57
2017-06-09T06:08:49.320Z,39.47
2017-06-09T06:09:49.582Z,39.47
2017-06-09T06:10:49.494Z,39.28
2017-06-09T06:11:49.447Z,39.57
2017-06-09T06:12:49.383Z,39.57
2017-06-09T06:13:49.317Z,39.37
2017-06-09T06:14:49.253Z,39.57
2017-06-09T06:15:49.189Z,39.57
2017-06-09T06:16:49.137Z,39.47
2017-06-09T06:17:49.067Z,39.37
2017-06-09T06:18:48.694Z,39.39
2017-06-09T06:19:48.631Z,39.28
2017-06-09T06:20:48.588Z,39.57
2017-06-09T06:21:48.833Z,39.47
2017-06-09T06:22:48.754Z,39.28
2017-06-09T06:23:48.682Z,39.47
2017-06-09T06:24:48.645Z,39.37
2017-06-09T06:25:48.277Z,39.39
2017-06-09T06:26:48.493Z,39.28
2017-06-09T06:27:48.455Z,39.39
2017-06-09T06:28:48.379Z,39.47
2017-06-09T06:29:48.329Z,39.28
2017-06-09T06:30:48.259Z,39.37
2017-06-09T06:31:48.181Z,39.57
2017-06-09T06:32:48.119Z,39.47
2017-06-09T06:33:48.066Z,39.37
2017-06-09T06:34:48.019Z,39.47
2017-06-09T06:35:47.956Z,39.37
2017-06-09T06:36:47.867Z,39.47
2017-06-09T06:37:47.838Z,39.37
2017-06-09T06:38:47.757Z,39.37
2017-06-09T06:39:47.690Z,39.37
2017-06-09T06:40:47.618Z,39.47
2017-06-09T06:41:47.570Z,39.18
2017-06-09T06:42:47.502Z,39.37
2017-06-09T06:43:47.456Z,39.37
2017-06-09T06:44:47.393Z,39.18
2017-06-09T06:45:47.007Z,39.37
2017-06-09T06:46:47.241Z,39.37
2017-06-09T06:47:47.236Z,39.47
2017-06-09T06:48:47.142Z,39.18
2017-06-09T06:49:47.053Z,39.37
2017-06-09T06:50:47.253Z,39.28
2017-06-09T06:51:46.953Z,39.57
2017-06-09T06:52:46.884Z,39.57
2017-06-09T06:53:46.818Z,39.37
2017-06-09T06:54:46.740Z,39.37
2017-06-09T06:55:46.694Z,39.47
2017-06-09T06:56:46.617Z,39.37
2017-06-09T06:57:46.555Z,39.57
2017-06-09T06:58:46.509Z,39.57
2017-06-09T06:59:46.445Z,39.47
2017-06-09T07:00:46.395Z,39.28
2017-06-09T07:01:46.315Z,39.57
2017-06-09T07:02:46.258Z,39.37
2017-06-09T07:03:46.188Z,39.57
2017-06-09T07:04:46.127Z,39.47
2017-06-09T07:05:46.078Z,39.47
2017-06-09T07:06:46.006Z,39.57
2017-06-09T07:07:45.953Z,39.47
2017-06-09T07:08:45.890Z,39.57
2017-06-09T07:09:45.819Z,39.66
2017-06-09T07:10:45.767Z,39.66
2017-06-09T07:11:45.688Z,39.95
2017-06-09T07:12:45.630Z,39.66
2017-06-09T07:13:45.575Z,39.66
2017-06-09T07:14:45.516Z,39.86
2017-06-09T07:15:45.440Z,40.15
2017-06-09T07:16:45.874Z,40.05
2017-06-09T07:17:45.312Z,40.15
2017-06-09T07:18:45.275Z,40.24
2017-06-09T07:19:45.206Z,39.87
2017-06-09T07:20:45.391Z,40.34
2017-06-09T07:21:45.063Z,39.66
2017-06-09T07:22:45.000Z,39.76
2017-06-09T07:23:44.944Z,39.66
2017-06-09T07:24:44.875Z,40.15
2017-06-09T07:25:44.800Z,39.86
2017-06-09T07:26:44.766Z,40.05
2017-06-09T07:27:44.702Z,40.05
2017-06-09T07:28:44.632Z,40.05
2017-06-09T07:29:44.581Z,39.95
2017-06-09T07:30:44.789Z,40.15
2017-06-09T07:31:44.439Z,40.15
2017-06-09T07:32:44.363Z,39.95
2017-06-09T07:33:44.312Z,40.05
2017-06-09T07:34:44.264Z,40.05
2017-06-09T07:35:44.179Z,40.15
2017-06-09T07:36:44.146Z,40.34
2017-06-09T07:37:44.052Z,39.95
2017-06-09T07:38:43.998Z,39.66
2017-06-09T07:39:43.952Z,39.69
2017-06-09T07:40:43.873Z,39.59
2017-06-09T07:41:43.812Z,39.47
2017-06-09T07:42:43.765Z,39.57
2017-06-09T07:43:43.682Z,39.37
2017-06-09T07:44:43.341Z,39.47
2017-06-09T07:45:43.578Z,39.39
2017-06-09T07:46:43.490Z,39.47
2017-06-09T07:47:43.450Z,39.28
2017-06-09T07:48:43.362Z,39.37
2017-06-09T07:49:43.300Z,39.37
2017-06-09T07:50:43.252Z,39.47
2017-06-09T07:51:43.200Z,39.57
2017-06-09T07:52:43.126Z,39.57
2017-06-09T07:53:43.068Z,39.47
2017-06-09T07:54:43.013Z,39.57
2017-06-09T07:55:42.996Z,39.57
2017-06-09T07:56:42.889Z,39.66
2017-06-09T07:57:42.513Z,39.95
2017-06-09T07:58:42.751Z,39.97
2017-06-09T07:59:42.691Z,40.15
2017-06-09T08:00:42.809Z,40.17
2017-06-09T08:01:42.262Z,40.17
2017-06-09T08:02:42.575Z,40.17
2017-06-09T08:03:42.428Z,39.95
2017-06-09T08:04:42.379Z,39.57
2017-06-09T08:05:42.315Z,39.86
2017-06-09T08:06:42.251Z,40.15
2017-06-09T08:07:42.194Z,40.75
2017-06-09T08:08:42.124Z,40.63
2017-06-09T08:09:42.050Z,40.05
2017-06-09T08:10:41.988Z,40.24
2017-06-09T08:11:41.936Z,40.36
2017-06-09T08:12:41.865Z,40.44
2017-06-09T08:13:41.815Z,40.24
2017-06-09T08:14:41.740Z,40.26
2017-06-09T08:15:41.677Z,40.26
2017-06-09T08:16:41.637Z,40.34
2017-06-09T08:17:41.564Z,40.24
2017-06-09T08:18:41.512Z,40.24
2017-06-09T08:19:41.430Z,40.26
2017-06-09T08:20:41.378Z,40.26
2017-06-09T08:21:41.324Z,40.24
2017-06-09T08:22:41.238Z,40.17
2017-06-09T08:23:41.203Z,40.15
2017-06-09T08:24:41.137Z,40.24
2017-06-09T08:25:41.061Z,40.24
2017-06-09T08:26:41.018Z,40.24
2017-06-09T08:27:40.929Z,40.24
2017-06-09T08:28:40.879Z,40.17
2017-06-09T08:29:40.815Z,40.24
2017-06-09T08:30:40.754Z,40.55
2017-06-09T08:31:40.702Z,40.53
2017-06-09T08:32:40.642Z,40.24
2017-06-09T08:33:40.576Z,40.53
2017-06-09T08:34:40.487Z,40.44
2017-06-09T08:35:40.146Z,40.15
2017-06-09T08:36:40.362Z,39.86
2017-06-09T08:37:40.325Z,39.95
2017-06-09T08:38:39.946Z,40.05
2017-06-09T08:39:40.189Z,39.95
2017-06-09T08:40:40.136Z,39.69
2017-06-09T08:41:40.052Z,39.59
2017-06-09T08:42:40.013Z,39.47
2017-06-09T08:43:39.938Z,39.37
2017-06-09T08:44:39.887Z,39.37
2017-06-09T08:45:39.816Z,39.39
2017-06-09T08:46:39.746Z,39.37
2017-06-09T08:47:39.689Z,39.37
2017-06-09T08:48:39.627Z,39.57
2017-06-09T08:49:39.259Z,39.28
2017-06-09T08:50:39.611Z,39.11
2017-06-09T08:51:39.465Z,39.11
2017-06-09T08:52:39.376Z,39.18
2017-06-09T08:53:39.323Z,38.99
2017-06-09T08:54:39.246Z,38.99
2017-06-09T08:55:39.289Z,38.89
2017-06-09T08:56:39.136Z,38.89
2017-06-09T08:57:39.073Z,38.89
2017-06-09T08:58:38.706Z,38.99
2017-06-09T08:59:38.956Z,38.99
2017-06-09T09:00:38.875Z,39.28
2017-06-09T09:01:38.497Z,39.18
2017-06-09T09:02:41.429Z,38.79
2017-06-09T09:03:38.672Z,38.89
2017-06-09T09:04:38.627Z,38.91
2017-06-09T09:05:38.577Z,38.99
2017-06-09T09:06:38.508Z,38.91
2017-06-09T09:07:38.437Z,39.2
2017-06-09T09:08:38.371Z,38.91
2017-06-09T09:09:38.308Z,38.81
2017-06-09T09:10:38.260Z,39.11
2017-06-09T09:11:38.188Z,39.01
2017-06-09T09:12:38.120Z,39.11
2017-06-09T09:13:38.058Z,39.01
2017-06-09T09:14:37.996Z,39.11
2017-06-09T09:15:37.934Z,38.99
2017-06-09T09:16:37.910Z,39.11
2017-06-09T09:17:37.812Z,39.2
2017-06-09T09:18:37.738Z,39.2
2017-06-09T09:19:37.687Z,39.29
2017-06-09T09:20:37.759Z,39.2
2017-06-09T09:21:37.548Z,38.81
2017-06-09T09:22:37.533Z,38.71
2017-06-09T09:23:37.431Z,38.53
2017-06-09T09:24:37.419Z,38.43
2017-06-09T09:25:37.310Z,38.53
2017-06-09T09:26:37.278Z,38.14
2017-06-09T09:27:37.171Z,38.51
2017-06-09T09:28:37.124Z,38.53
2017-06-09T09:29:37.047Z,38.62
2017-06-09T09:30:36.706Z,38.53
2017-06-09T09:31:36.953Z,38.43
2017-06-09T09:32:36.955Z,38.14
2017-06-09T09:33:36.856Z,38.23
2017-06-09T09:34:36.858Z,38.23
2017-06-09T09:35:36.701Z,38.23
2017-06-09T09:36:36.313Z,38.71
2017-06-09T09:37:36.558Z,38.62
2017-06-09T09:38:36.502Z,38.62
2017-06-09T09:39:36.449Z,38.53
2017-06-09T09:40:36.369Z,38.53
2017-06-09T09:41:36.313Z,38.43
2017-06-09T09:42:36.247Z,38.43
2017-06-09T09:43:36.191Z,38.81
2017-06-09T09:44:36.131Z,39.29
2017-06-09T09:45:36.063Z,39.01
2017-06-09T09:46:35.998Z,39.29
2017-06-09T09:47:35.924Z,39.29
2017-06-09T09:48:35.879Z,39.2
2017-06-09T09:49:35.816Z,38.71
2017-06-09T09:50:35.446Z,38.91
2017-06-09T09:51:35.684Z,38.91
2017-06-09T09:52:35.609Z,38.53
2017-06-09T09:53:35.563Z,38.53
2017-06-09T09:54:35.501Z,38.62
2017-06-09T09:55:35.428Z,38.91
2017-06-09T09:56:35.388Z,39.2
2017-06-09T09:57:35.323Z,39.2
2017-06-09T09:58:35.261Z,39.29
2017-06-09T09:59:35.178Z,39.2
2017-06-09T10:00:35.121Z,38.91
2017-06-09T10:01:35.076Z,39.11
2017-06-09T10:02:35.001Z,39.29
2017-06-09T10:03:34.921Z,38.62
2017-06-09T10:04:34.878Z,38.53
2017-06-09T10:05:34.814Z,38.81
2017-06-09T10:06:34.752Z,39.2
2017-06-09T10:07:34.673Z,39.2
2017-06-09T10:08:34.636Z,38.71
2017-06-09T10:09:34.268Z,39.29
2017-06-09T10:10:34.500Z,39.29
2017-06-09T10:11:34.437Z,38.43
2017-06-09T10:12:34.386Z,39.39
2017-06-09T10:13:34.324Z,39.2
2017-06-09T10:14:34.240Z,39.29
2017-06-09T10:15:34.172Z,38.91
2017-06-09T10:16:34.111Z,39.01
2017-06-09T10:17:34.060Z,39.01
2017-06-09T10:18:33.996Z,38.91
2017-06-09T10:19:33.935Z,38.91
2017-06-09T10:20:33.872Z,39.11
2017-06-09T10:21:33.810Z,39.49
2017-06-09T10:22:33.751Z,38.91
2017-06-09T10:23:33.395Z,39.59
2017-06-09T10:24:33.321Z,39.59
2017-06-09T10:25:33.574Z,39.49
2017-06-09T10:26:33.492Z,39.59
2017-06-09T10:27:33.451Z,39.59
2017-06-09T10:28:33.408Z,39.59
2017-06-09T10:29:33.353Z,39.11
2017-06-09T10:30:33.264Z,39.01
2017-06-09T10:31:33.204Z,39.29
2017-06-09T10:32:33.122Z,39.11
2017-06-09T10:33:32.761Z,39.2
2017-06-09T10:34:32.998Z,39.2
2017-06-09T10:35:32.626Z,39.11
2017-06-09T10:36:32.889Z,39.59
2017-06-09T10:37:32.827Z,39.11
2017-06-09T10:38:32.775Z,38.81
2017-06-09T10:39:32.686Z,39.11
2017-06-09T10:40:32.629Z,38.71
2017-06-09T10:41:32.591Z,39.11
2017-06-09T10:42:32.494Z,39.39
2017-06-09T10:43:32.481Z,39.69
2017-06-09T10:44:32.390Z,39.49
2017-06-09T10:45:32.328Z,39.49
2017-06-09T10:46:32.289Z,39.2
2017-06-09T10:47:32.203Z,39.2
2017-06-09T10:48:31.828Z,39.01
2017-06-09T10:49:31.805Z,38.71
2017-06-09T10:50:32.018Z,39.01
2017-06-09T10:51:31.931Z,39.2
2017-06-09T10:52:31.886Z,38.81
2017-06-09T10:53:31.843Z,39.2
2017-06-09T10:54:31.758Z,39.29
2017-06-09T10:55:31.696Z,38.62
2017-06-09T10:56:31.620Z,38.91
2017-06-09T10:57:31.585Z,38.53
2017-06-09T10:58:31.510Z,38.71
2017-06-09T10:59:31.475Z,38.81
2017-06-09T11:00:31.369Z,38.53
2017-06-09T11:01:31.323Z,38.62
2017-06-09T11:02:31.261Z,38.53
2017-06-09T11:03:31.200Z,38.71
2017-06-09T11:04:31.138Z,38.62
2017-06-09T11:05:31.058Z,38.23
2017-06-09T11:06:30.706Z,38.33
2017-06-09T11:07:30.959Z,38.43
2017-06-09T11:08:30.898Z,38.14
2017-06-09T11:09:30.809Z,38.43
2017-06-09T11:10:30.864Z,38.43
2017-06-09T11:11:30.702Z,38.33
2017-06-09T11:12:30.638Z,38.14
2017-06-09T11:13:30.296Z,38.23
2017-06-09T11:14:30.524Z,37.95
2017-06-09T11:15:30.643Z,38.14
2017-06-09T11:16:30.385Z,38.14
2017-06-09T11:17:30.548Z,38.14
2017-06-09T11:18:30.251Z,37.85
2017-06-09T11:19:30.196Z,37.56
2017-06-09T11:20:29.844Z,37.48
2017-06-09T11:21:30.069Z,37.65
2017-06-09T11:22:30.017Z,37.75
2017-06-09T11:23:29.955Z,37.77
2017-06-09T11:24:29.886Z,37.46
2017-06-09T11:25:29.842Z,37.37
2017-06-09T11:26:29.766Z,37.75
2017-06-09T11:27:29.389Z,37.56
2017-06-09T11:28:29.654Z,37.65
2017-06-09T11:29:29.583Z,37.65
2017-06-09T11:30:29.527Z,37.65
2017-06-09T11:31:29.439Z,37.65
2017-06-09T11:32:29.391Z,37.75
2017-06-09T11:33:29.529Z,37.67
2017-06-09T11:34:29.261Z,37.85
2017-06-09T11:35:29.201Z,38.33
2017-06-09T11:36:29.147Z,38.81
2017-06-09T11:37:28.768Z,38.93
2017-06-09T11:38:29.018Z,39.7
2017-06-09T11:39:28.654Z,39.41
2017-06-09T11:40:29.099Z,39.61
2017-06-09T11:41:28.833Z,39.61
2017-06-09T11:42:28.757Z,39.51
2017-06-09T11:43:28.714Z,39.41
2017-06-09T11:44:28.631Z,39.41
2017-06-09T11:45:28.581Z,39.7
2017-06-09T11:46:28.521Z,39.51
2017-06-09T11:47:28.450Z,39.51
2017-06-09T11:48:28.407Z,39.9
2017-06-09T11:49:28.336Z,39.99
2017-06-09T11:50:28.267Z,39.51
2017-06-09T11:51:28.217Z,39.41
2017-06-09T11:52:28.151Z,39.51
2017-06-09T11:53:28.083Z,39.51
2017-06-09T11:54:28.035Z,39.32
2017-06-09T11:55:27.966Z,39.51
2017-06-09T11:56:27.896Z,39.51
2017-06-09T11:57:27.523Z,39.41
2017-06-09T11:58:27.771Z,39.61
2017-06-09T11:59:27.717Z,39.61
2017-06-09T12:00:27.671Z,39.61
2017-06-09T12:01:27.621Z,39.32
2017-06-09T12:02:27.513Z,39.32
2017-06-09T12:03:27.468Z,39.51
2017-06-09T12:04:27.413Z,39.51
2017-06-09T12:05:27.352Z,39.41
2017-06-09T12:06:27.282Z,39.41
2017-06-09T12:07:27.209Z,39.22
2017-06-09T12:08:27.141Z,39.61
2017-06-09T12:09:27.089Z,39.51
2017-06-09T12:10:27.037Z,39.51
2017-06-09T12:11:26.971Z,39.51
2017-06-09T12:12:26.918Z,39.41
2017-06-09T12:13:26.831Z,39.32
2017-06-09T12:14:26.770Z,39.51
2017-06-09T12:15:26.736Z,39.41
2017-06-09T12:16:26.645Z,39.51
2017-06-09T12:17:26.584Z,39.41
2017-06-09T12:18:26.540Z,39.51
2017-06-09T12:19:26.458Z,39.41
2017-06-09T12:20:26.498Z,39.51
2017-06-09T12:21:26.361Z,39.62
2017-06-09T12:22:26.294Z,39.32
2017-06-09T12:23:26.222Z,39.43
2017-06-09T12:24:26.175Z,39.51
2017-06-09T12:25:25.898Z,39.41
2017-06-09T12:26:26.040Z,39.7
2017-06-09T12:27:25.667Z,39.32
2017-06-09T12:28:26.012Z,39.34
2017-06-09T12:29:25.844Z,39.43
2017-06-09T12:30:25.788Z,39.62
2017-06-09T12:31:25.742Z,39.61
2017-06-09T12:32:25.664Z,39.41
2017-06-09T12:33:25.610Z,39.41
2017-06-09T12:34:25.555Z,39.62
2017-06-09T12:35:25.485Z,39.04
2017-06-09T12:36:25.493Z,39.43
2017-06-09T12:37:25.369Z,39.41
2017-06-09T12:38:25.294Z,39.43
2017-06-09T12:39:25.368Z,39.43
2017-06-09T12:40:25.176Z,39.53
2017-06-09T12:41:25.114Z,39.43
2017-06-09T12:42:24.855Z,39.62
2017-06-09T12:43:25.097Z,39.53
2017-06-09T12:44:24.927Z,39.43
2017-06-09T12:45:24.853Z,39.62
2017-06-09T12:46:24.800Z,39.24
2017-06-09T12:47:24.428Z,39.62
2017-06-09T12:48:24.709Z,39.62
2017-06-09T12:49:24.741Z,39.62
2017-06-09T12:50:24.571Z,38.76
2017-06-09T12:51:24.517Z,37.7
2017-06-09T12:52:24.434Z,37.7
2017-06-09T12:53:24.103Z,37.6
2017-06-09T12:54:24.307Z,37.29